Time;durP1;ratioP1;P1;durP2;ratioP2;P2;SDS_P1;SDS_P2;PMS_P1;PMS_P2;Temp;Humidity;BMP_temperature;BMP_pressure;BME280_temperature;BME280_humidity;BME280_pressure;Samples;Min_cycle;Max_cycle;Signal;HPM_P1;HPM_P2
2022/10/08 00:01:18;;;;;;;11.95;3.63;;;;;;;13.69;84.81;101496.72;5036375;28;20407;-57
2022/10/08 00:04:06;;;;;;;11.35;3.55;;;;;;;13.66;85.03;101497.22;5028201;28;20068;-59
2022/10/08 00:06:34;;;;;;;12.00;3.65;;;;;;;13.66;85.41;101499.16;5036837;28;20484;-62
2022/10/08 00:09:04;;;;;;;10.38;3.45;;;;;;;13.67;85.42;101498.06;5035864;28;20038;-61
2022/10/08 00:11:35;;;;;;;14.13;3.50;;;;;;;13.66;85.78;101496.41;5035064;28;20044;-60
2022/10/08 00:14:03;;;;;;;14.18;3.30;;;;;;;13.66;85.71;101499.16;5035843;28;20491;-62
2022/10/08 00:16:38;;;;;;;8.82;3.28;;;;;;;13.67;85.66;101492.59;5038129;28;20088;-58
2022/10/08 00:19:15;;;;;;;11.55;3.08;;;;;;;13.67;85.35;101498.06;5035151;28;20041;-61
2022/10/08 00:21:44;;;;;;;10.05;3.20;;;;;;;13.68;85.49;101496.97;5035756;28;20059;-54
2022/10/08 00:24:16;;;;;;;11.20;3.17;;;;;;;13.67;85.62;101493.41;5034641;28;20508;-58
2022/10/08 00:26:44;;;;;;;12.98;3.40;;;;;;;13.68;85.48;101486.03;5017667;28;20459;-61
2022/10/08 00:29:14;;;;;;;12.07;3.42;;;;;;;13.70;85.45;101494.78;5035348;28;20034;-60
2022/10/08 00:31:44;;;;;;;9.00;3.00;;;;;;;13.68;85.29;101496.97;5034320;28;20037;-58
2022/10/08 00:34:14;;;;;;;11.40;3.30;;;;;;;13.69;85.42;101498.63;5035514;28;20045;-60
2022/10/08 00:36:42;;;;;;;14.15;4.30;;;;;;;13.69;85.57;101493.97;5019468;28;20029;-57
2022/10/08 00:39:14;;;;;;;12.63;3.70;;;;;;;13.69;85.43;101498.63;5025404;28;20045;-58
2022/10/08 00:41:43;;;;;;;9.05;3.03;;;;;;;13.64;85.68;101503.00;5035116;28;20051;-62
2022/10/08 00:44:42;;;;;;;10.98;3.45;;;;;;;13.67;86.00;101495.34;5034119;28;20053;-61
2022/10/08 00:47:34;;;;;;;14.15;4.07;;;;;;;13.67;85.66;101500.81;5035000;28;20040;-57
2022/10/08 00:50:09;;;;;;;14.65;3.78;;;;;;;13.66;85.87;101507.38;5035826;28;20522;-56
2022/10/08 00:53:04;;;;;;;13.93;3.78;;;;;;;13.66;85.85;101510.09;4997998;28;20030;-56
2022/10/08 00:55:32;;;;;;;11.32;3.33;;;;;;;13.66;85.77;101499.16;5025803;28;20470;-57
2022/10/08 00:58:11;;;;;;;10.63;3.13;;;;;;;13.63;85.94;101509.56;5035239;28;20046;-56
2022/10/08 01:00:39;;;;;;;15.30;4.18;;;;;;;13.63;86.40;101506.00;5025818;28;20041;-57
2022/10/08 01:03:27;;;;;;;10.38;3.25;;;;;;;13.63;86.86;101506.81;5026295;28;20049;-59
2022/10/08 01:06:16;;;;;;;11.23;3.70;;;;;;;13.63;86.95;101512.28;5040405;28;20045;-62
2022/10/08 01:09:10;;;;;;;12.45;3.80;;;;;;;13.64;87.54;101513.97;5025424;28;20405;-57
2022/10/08 01:11:46;;;;;;;12.43;3.55;;;;;;;13.62;87.79;101510.66;5021893;28;20045;-59
2022/10/08 01:14:50;;;;;;;15.18;4.15;;;;;;;13.60;87.99;101512.84;5036722;28;20053;-56
2022/10/08 01:17:29;;;;;;;12.27;3.33;;;;;;;13.60;88.15;101512.84;5044506;28;20042;-57
2022/10/08 01:20:03;;;;;;;10.02;3.50;;;;;;;13.59;88.48;101505.75;5042459;28;20045;-57
2022/10/08 01:23:18;;;;;;;15.35;3.83;;;;;;;13.61;88.78;101511.78;5025778;28;20084;-61
2022/10/08 01:25:52;;;;;;;10.68;3.67;;;;;;;13.59;88.72;101513.94;5033028;28;20040;-57
2022/10/08 01:28:42;;;;;;;17.80;4.03;;;;;;;13.58;89.41;101509.56;5068958;28;20053;-59
2022/10/08 01:31:21;;;;;;;13.95;3.78;;;;;;;13.59;90.28;101510.41;5049822;28;20049;-61
2022/10/08 01:34:02;;;;;;;11.85;3.30;;;;;;;13.58;90.92;101519.69;5034230;28;20089;-62
2022/10/08 01:36:46;;;;;;;14.90;4.85;;;;;;;13.55;91.94;101532.00;5033786;28;20040;-61
2022/10/08 01:39:17;;;;;;;13.00;3.95;;;;;;;13.53;93.42;101527.91;5014801;28;20432;-59
2022/10/08 01:41:53;;;;;;;9.10;3.35;;;;;;;13.48;94.00;101536.91;5035797;28;20052;-59
2022/10/08 01:44:33;;;;;;;11.18;3.83;;;;;;;13.45;95.33;101522.97;5021781;28;20037;-62
2022/10/08 01:47:05;;;;;;;11.77;3.95;;;;;;;13.42;96.22;101514.19;5007762;28;20093;-61
2022/10/08 01:49:40;;;;;;;9.65;3.63;;;;;;;13.42;96.49;101518.81;5015882;28;20044;-60
2022/10/08 01:52:13;;;;;;;14.55;3.75;;;;;;;13.41;97.50;101525.41;5036187;28;20041;-62
2022/10/08 01:54:43;;;;;;;12.07;3.70;;;;;;;13.40;97.98;101524.59;5033670;28;20033;-60
2022/10/08 01:57:11;;;;;;;11.48;3.45;;;;;;;13.41;98.30;101525.41;5033414;28;20128;-61
2022/10/08 01:59:49;;;;;;;12.05;3.58;;;;;;;13.39;98.55;101513.91;5031826;28;20055;-58
2022/10/08 02:02:21;;;;;;;15.23;4.53;;;;;;;13.38;99.79;101526.75;5034508;28;20514;-59
2022/10/08 02:04:53;;;;;;;13.70;3.80;;;;;;;13.37;99.89;101529.75;5034261;28;20057;-61
2022/10/08 02:07:24;;;;;;;9.93;3.90;;;;;;;13.36;100.00;101531.69;5031209;28;20067;-61
2022/10/08 02:10:04;;;;;;;8.02;3.45;;;;;;;13.37;100.00;101533.34;5032510;28;20057;-61
2022/10/08 02:12:32;;;;;;;12.35;4.20;;;;;;;13.35;100.00;101537.44;5035497;28;20108;-58
2022/10/08 02:15:00;;;;;;;8.20;3.25;;;;;;;13.36;100.00;101534.41;5034583;28;20047;-58
2022/10/08 02:17:53;;;;;;;11.95;3.75;;;;;;;13.35;100.00;101531.97;5024766;28;20050;-62
2022/10/08 02:20:49;;;;;;;11.45;3.53;;;;;;;13.30;100.00;101537.41;5015564;28;20399;-64
2022/10/08 02:23:25;;;;;;;9.50;3.75;;;;;;;13.29;100.00;101542.06;5034925;28;20395;-58
2022/10/08 02:25:59;;;;;;;13.57;3.88;;;;;;;13.29;100.00;101541.25;5032755;28;20543;-60
2022/10/08 02:28:49;;;;;;;10.23;3.45;;;;;;;13.27;100.00;101541.50;5032277;28;20100;-61
2022/10/08 02:31:51;;;;;;;10.52;3.60;;;;;;;13.25;100.00;101537.34;5016131;28;20136;-58
2022/10/08 02:34:30;;;;;;;11.50;3.97;;;;;;;13.25;100.00;101542.81;5038212;28;20046;-60
2022/10/08 02:37:33;;;;;;;7.22;3.05;;;;;;;13.26;100.00;101539.03;5033326;28;20048;-59
2022/10/08 02:40:04;;;;;;;8.73;3.53;;;;;;;13.25;100.00;101531.88;5036259;28;20042;-60
2022/10/08 02:42:32;;;;;;;8.18;3.05;;;;;;;13.24;100.00;101539.28;5030578;28;20037;-60
2022/10/08 02:45:06;;;;;;;11.30;3.35;;;;;;;13.23;100.00;101534.91;5038448;28;20053;-56
2022/10/08 02:47:36;;;;;;;10.13;3.30;;;;;;;13.19;100.00;101537.34;5028785;28;20041;-60
2022/10/08 02:50:11;;;;;;;9.98;3.40;;;;;;;13.19;100.00;101531.88;5025128;28;20458;-62
2022/10/08 02:52:41;;;;;;;8.45;2.88;;;;;;;13.19;100.00;101529.13;5029063;28;20484;-60
2022/10/08 02:55:31;;;;;;;8.90;3.08;;;;;;;13.21;100.00;101526.13;5035708;28;20061;-60
2022/10/08 02:58:05;;;;;;;9.07;3.20;;;;;;;13.21;100.00;101534.34;5033198;28;20571;-58
2022/10/08 03:00:38;;;;;;;7.93;3.17;;;;;;;13.18;100.00;101538.44;5014102;28;20046;-62
2022/10/08 03:03:15;;;;;;;8.88;3.00;;;;;;;13.18;100.00;101537.59;5031668;28;20045;-61
2022/10/08 03:05:43;;;;;;;10.48;3.25;;;;;;;13.17;100.00;101533.22;5040963;28;20037;-61
2022/10/08 03:08:13;;;;;;;10.30;2.80;;;;;;;13.16;100.00;101539.81;5031571;28;20038;-58
2022/10/08 03:10:43;;;;;;;10.23;2.90;;;;;;;13.15;100.00;101538.97;5032808;28;20419;-61
2022/10/08 03:13:11;;;;;;;6.80;2.55;;;;;;;13.16;100.00;101537.06;4998769;28;20058;-61
2022/10/08 03:15:40;;;;;;;6.22;2.72;;;;;;;13.14;100.00;101537.31;5064307;28;20121;-60
2022/10/08 03:18:10;;;;;;;7.75;2.83;;;;;;;13.15;100.00;101543.63;5031063;28;20038;-61
2022/10/08 03:20:44;;;;;;;9.00;2.95;;;;;;;13.14;100.00;101541.97;5031269;28;20049;-62
2022/10/08 03:23:13;;;;;;;10.52;2.92;;;;;;;13.13;100.00;101545.78;5013835;28;20050;-60
2022/10/08 03:25:41;;;;;;;8.07;2.50;;;;;;;13.13;100.00;101552.09;5034332;28;20045;-60
2022/10/08 03:28:09;;;;;;;7.55;2.22;;;;;;;13.14;100.00;101553.75;5013981;28;20042;-61
2022/10/08 03:30:37;;;;;;;9.73;2.83;;;;;;;13.12;100.00;101550.44;5036767;28;20554;-59
2022/10/08 03:33:04;;;;;;;7.57;2.50;;;;;;;13.10;100.00;101557.28;5035011;28;20051;-59
2022/10/08 03:35:32;;;;;;;8.85;2.72;;;;;;;13.07;100.00;101564.09;5036683;28;20037;-61
2022/10/08 03:38:00;;;;;;;5.75;2.58;;;;;;;13.06;100.00;101565.22;5036379;28;20125;-60
2022/10/08 03:40:27;;;;;;;7.97;2.78;;;;;;;13.05;100.00;101560.81;5036417;28;20105;-61
2022/10/08 03:42:55;;;;;;;7.65;2.60;;;;;;;13.03;100.00;101567.63;5038136;28;20522;-62
2022/10/08 03:45:23;;;;;;;8.10;2.67;;;;;;;13.01;100.00;101567.91;5036955;28;20041;-61
2022/10/08 03:47:51;;;;;;;9.52;2.83;;;;;;;13.01;100.00;101567.91;5034898;28;20519;-58
2022/10/08 03:50:20;;;;;;;10.73;2.50;;;;;;;12.99;100.00;101567.38;5035880;28;20096;-57
2022/10/08 03:52:48;;;;;;;7.93;2.38;;;;;;;12.97;100.00;101569.53;5015807;28;20046;-60
2022/10/08 03:55:16;;;;;;;8.05;2.33;;;;;;;12.95;100.00;101571.72;5029419;28;20124;-57
2022/10/08 03:57:44;;;;;;;9.02;2.50;;;;;;;12.93;100.00;101569.22;5036700;28;20034;-61
2022/10/08 04:00:12;;;;;;;7.40;2.65;;;;;;;12.93;100.00;101580.16;5036096;28;20504;-60
2022/10/08 04:02:39;;;;;;;9.80;2.72;;;;;;;12.91;100.00;101587.81;5034289;28;20049;-61
2022/10/08 04:05:07;;;;;;;7.38;2.88;;;;;;;12.91;100.00;101581.53;5035056;28;20100;-60
2022/10/08 04:07:35;;;;;;;9.15;2.63;;;;;;;12.90;100.00;101588.91;5047832;28;20061;-58
2022/10/08 04:10:03;;;;;;;6.40;2.65;;;;;;;12.88;100.00;101588.34;5033786;28;20064;-61
2022/10/08 04:12:31;;;;;;;6.63;2.53;;;;;;;12.87;100.00;101585.88;5034734;28;20037;-59
2022/10/08 04:14:58;;;;;;;7.22;2.40;;;;;;;12.87;100.00;101589.44;5034393;28;20041;-61
2022/10/08 04:17:26;;;;;;;7.47;2.50;;;;;;;12.84;100.00;101591.88;5034033;28;20052;-61
2022/10/08 04:19:56;;;;;;;8.32;2.63;;;;;;;12.84;100.00;101594.59;5034261;28;20044;-62
2022/10/08 04:22:23;;;;;;;10.30;2.53;;;;;;;12.82;100.00;101594.91;5034338;28;20067;-61
2022/10/08 04:24:52;;;;;;;6.45;2.33;;;;;;;12.83;100.00;101596.53;5034132;28;20072;-61
2022/10/08 04:27:20;;;;;;;7.68;2.50;;;;;;;12.82;100.00;101594.03;5035313;28;20033;-59
2022/10/08 04:29:47;;;;;;;8.10;2.47;;;;;;;12.81;100.00;101597.88;5034691;28;20436;-58
2022/10/08 04:32:16;;;;;;;6.55;2.90;;;;;;;12.82;100.00;101599.50;5035892;28;20033;-61
2022/10/08 04:34:43;;;;;;;9.52;2.67;;;;;;;12.83;100.00;101595.72;5032998;28;20064;-62
2022/10/08 04:37:11;;;;;;;10.43;2.85;;;;;;;12.81;100.00;101608.81;5032668;28;20033;-59
2022/10/08 04:39:39;;;;;;;8.48;3.08;;;;;;;12.80;100.00;101597.06;5036516;28;20112;-60
2022/10/08 04:42:06;;;;;;;10.15;3.60;;;;;;;12.78;100.00;101602.78;5014267;28;20439;-60
2022/10/08 04:44:34;;;;;;;8.98;3.60;;;;;;;12.75;100.00;101605.25;5034498;28;20044;-62
2022/10/08 04:47:01;;;;;;;9.68;3.72;;;;;;;12.74;100.00;101609.84;5033134;28;20052;-60
2022/10/08 04:49:29;;;;;;;8.55;3.85;;;;;;;12.76;100.00;101610.44;5035201;28;20041;-58
2022/10/08 04:51:57;;;;;;;10.55;4.80;;;;;;;12.77;100.00;101609.34;5035092;28;20534;-59
2022/10/08 04:54:24;;;;;;;10.20;4.78;;;;;;;12.76;100.00;101618.63;5034889;28;20048;-61
2022/10/08 04:56:52;;;;;;;10.50;5.43;;;;;;;12.76;100.00;101615.91;5033386;28;20046;-61
2022/10/08 04:59:20;;;;;;;11.07;5.35;;;;;;;12.75;100.00;101619.72;5035667;28;20030;-57
2022/10/08 05:01:48;;;;;;;13.18;6.45;;;;;;;12.75;100.00;101622.47;5034532;28;20046;-60
2022/10/08 05:04:16;;;;;;;13.15;6.63;;;;;;;12.76;100.00;101635.03;5034910;28;20038;-58
2022/10/08 05:06:44;;;;;;;13.85;6.70;;;;;;;12.77;100.00;101641.31;5031974;28;20050;-59
2022/10/08 05:09:11;;;;;;;15.20;7.55;;;;;;;12.76;100.00;101635.03;5030159;28;20369;-58
2022/10/08 05:11:39;;;;;;;12.18;6.88;;;;;;;12.75;100.00;101638.88;5032324;28;20042;-60
2022/10/08 05:14:07;;;;;;;13.90;7.43;;;;;;;12.73;100.00;101638.31;5048691;28;20175;-60
2022/10/08 05:16:35;;;;;;;14.85;7.82;;;;;;;12.74;100.00;101644.59;5031627;28;20026;-58
2022/10/08 05:19:03;;;;;;;14.48;8.45;;;;;;;12.74;100.00;101652.78;5024731;28;20067;-57
2022/10/08 05:21:31;;;;;;;12.27;7.35;;;;;;;12.74;100.00;101650.88;5036980;28;20046;-55
2022/10/08 05:24:04;;;;;;;14.95;8.68;;;;;;;12.71;100.00;101643.22;5038581;28;20041;-58
2022/10/08 05:26:39;;;;;;;14.50;9.75;;;;;;;12.72;100.00;101649.50;5033981;28;20111;-60
2022/10/08 05:29:24;;;;;;;13.10;8.95;;;;;;;12.72;100.00;101650.34;5034092;28;20037;-60
2022/10/08 05:31:52;;;;;;;14.85;9.18;;;;;;;12.74;100.00;101659.09;5037805;28;20042;-58
2022/10/08 05:34:20;;;;;;;17.27;9.80;;;;;;;12.72;100.00;101650.34;5039221;28;20093;-58
2022/10/08 05:36:48;;;;;;;19.90;9.88;;;;;;;12.71;100.00;101654.16;5051610;28;20083;-57
2022/10/08 05:39:16;;;;;;;15.27;9.98;;;;;;;12.70;100.00;101668.91;5042164;28;20041;-59
2022/10/08 05:41:43;;;;;;;16.33;9.90;;;;;;;12.71;100.00;101665.09;5045086;28;20030;-59
2022/10/08 05:44:11;;;;;;;17.52;10.70;;;;;;;12.72;100.00;101666.75;5029861;28;20053;-60
2022/10/08 05:46:40;;;;;;;17.23;11.35;;;;;;;12.70;100.00;101670.81;5047083;28;20096;-60
2022/10/08 05:49:09;;;;;;;21.25;12.50;;;;;;;12.69;100.00;101675.44;5043755;28;20060;-55
2022/10/08 05:51:37;;;;;;;19.98;12.13;;;;;;;12.67;100.00;101677.63;5018224;28;20503;-60
2022/10/08 05:54:05;;;;;;;22.08;12.68;;;;;;;12.62;100.00;101677.59;5034239;28;20124;-61
2022/10/08 05:56:33;;;;;;;17.85;12.05;;;;;;;12.64;100.00;101680.88;5034583;28;20088;-58
2022/10/08 05:59:01;;;;;;;18.85;12.05;;;;;;;12.64;100.00;101691.81;5034049;28;20046;-61
2022/10/08 06:01:30;;;;;;;19.05;12.55;;;;;;;12.65;100.00;101689.91;5033393;28;20136;-58
2022/10/08 06:04:01;;;;;;;18.20;12.38;;;;;;;12.66;100.00;101700.59;5017645;28;20120;-56
2022/10/08 06:06:40;;;;;;;18.65;13.07;;;;;;;12.69;100.00;101707.44;5013787;28;20037;-59
2022/10/08 06:09:09;;;;;;;20.75;13.25;;;;;;;12.70;100.00;101715.41;5027425;28;20136;-60
2022/10/08 06:11:37;;;;;;;22.75;13.50;;;;;;;12.69;100.00;101711.00;5033704;28;20041;-59
2022/10/08 06:14:06;;;;;;;21.75;12.75;;;;;;;12.70;100.00;101709.94;5033307;28;20514;-59
2022/10/08 06:16:34;;;;;;;22.77;14.23;;;;;;;12.69;100.00;101713.72;5012708;28;20036;-60
2022/10/08 06:19:05;;;;;;;22.05;14.68;;;;;;;12.67;100.00;101718.63;5030272;28;20046;-59
2022/10/08 06:21:33;;;;;;;20.40;14.57;;;;;;;12.66;100.00;101717.00;5032425;28;20503;-57
2022/10/08 06:24:04;;;;;;;24.98;16.30;;;;;;;12.64;100.00;101730.09;5038615;28;20044;-58
2022/10/08 06:26:35;;;;;;;25.92;17.45;;;;;;;12.63;100.00;101736.66;5022177;28;20500;-55
2022/10/08 06:29:05;;;;;;;22.88;16.63;;;;;;;12.64;100.00;101743.78;5033369;28;20404;-60
2022/10/08 06:31:34;;;;;;;23.48;17.17;;;;;;;12.62;100.00;101737.72;5032687;28;20049;-60
2022/10/08 06:34:03;;;;;;;19.90;15.10;;;;;;;12.63;100.00;101749.47;5012939;28;20062;-61
2022/10/08 06:36:32;;;;;;;23.65;15.90;;;;;;;12.62;100.00;101751.41;5015751;28;20056;-62
2022/10/08 06:39:04;;;;;;;24.95;17.10;;;;;;;12.61;100.00;101752.50;5012743;28;20041;-60
2022/10/08 06:41:33;;;;;;;22.77;16.10;;;;;;;12.61;100.00;101752.50;5034388;28;20030;-59
2022/10/08 06:44:06;;;;;;;25.50;15.60;;;;;;;12.63;100.00;101761.28;5038845;28;20098;-61
2022/10/08 06:46:34;;;;;;;21.15;14.70;;;;;;;12.64;100.00;101765.63;5035810;28;20492;-57
2022/10/08 06:49:04;;;;;;;24.73;17.73;;;;;;;12.65;100.00;101770.03;5039609;28;20033;-56
2022/10/08 06:51:33;;;;;;;26.92;16.77;;;;;;;12.66;100.00;101774.41;5031917;28;20045;-58
2022/10/08 06:54:01;;;;;;;23.52;15.05;;;;;;;12.66;100.00;101785.34;5034386;28;20061;-60
2022/10/08 06:56:35;;;;;;;21.88;14.88;;;;;;;12.64;100.00;101784.78;5027861;28;20493;-59
2022/10/08 06:59:04;;;;;;;24.27;15.88;;;;;;;12.65;100.00;101791.91;4999068;28;20064;-58
2022/10/08 07:01:33;;;;;;;23.67;16.35;;;;;;;12.66;100.00;101796.28;5035556;28;20049;-56
2022/10/08 07:04:03;;;;;;;29.52;17.20;;;;;;;12.66;100.00;101798.22;5036202;28;20121;-55
2022/10/08 07:06:31;;;;;;;21.20;15.52;;;;;;;12.64;100.00;101803.91;5049407;28;20470;-56
2022/10/08 07:09:00;;;;;;;26.35;16.67;;;;;;;12.63;100.00;101805.03;5037428;28;20045;-54
2022/10/08 07:11:30;;;;;;;27.98;18.17;;;;;;;12.63;100.00;101813.22;5035404;28;20053;-56
2022/10/08 07:13:59;;;;;;;32.95;16.58;;;;;;;12.66;100.00;101820.06;5036374;28;20380;-59
2022/10/08 07:16:28;;;;;;;29.67;16.67;;;;;;;12.67;100.00;101821.72;5035198;28;20484;-55
2022/10/08 07:18:57;;;;;;;23.73;15.32;;;;;;;12.67;100.00;101828.00;5037704;28;20444;-57
2022/10/08 07:21:27;;;;;;;23.90;14.80;;;;;;;12.65;100.00;101835.66;5032149;28;20049;-59
2022/10/08 07:23:55;;;;;;;27.40;14.38;;;;;;;12.65;100.00;101826.63;5035813;28;20101;-56
2022/10/08 07:26:25;;;;;;;22.45;13.30;;;;;;;12.67;100.00;101835.38;5035824;28;20037;-56
2022/10/08 07:28:54;;;;;;;25.25;13.10;;;;;;;12.67;100.00;101844.41;5036651;28;20034;-56
2022/10/08 07:31:26;;;;;;;29.60;13.50;;;;;;;12.68;100.00;101851.56;5033196;28;20492;-58
2022/10/08 07:33:59;;;;;;;18.98;11.88;;;;;;;12.67;100.00;101849.88;5031398;28;20041;-59
2022/10/08 07:36:28;;;;;;;22.23;13.30;;;;;;;12.68;100.00;101851.56;5052279;28;20045;-60
2022/10/08 07:39:07;;;;;;;18.95;11.93;;;;;;;12.68;100.00;101857.03;5035330;28;20080;-57
2022/10/08 07:41:35;;;;;;;20.88;12.25;;;;;;;12.68;100.00;101858.94;5040142;28;20507;-55
2022/10/08 07:44:04;;;;;;;20.65;10.85;;;;;;;12.69;100.00;101858.66;5041091;28;20080;-57
2022/10/08 07:46:34;;;;;;;20.98;10.85;;;;;;;12.68;100.00;101867.97;5035610;28;20495;-59
2022/10/08 07:49:03;;;;;;;19.25;10.55;;;;;;;12.67;100.00;101863.56;5036860;28;20041;-59
2022/10/08 07:51:32;;;;;;;18.63;10.30;;;;;;;12.67;100.00;101873.66;5016132;28;20038;-56
2022/10/08 07:54:01;;;;;;;17.95;9.02;;;;;;;12.67;100.00;101868.19;5035616;28;20033;-59
2022/10/08 07:56:30;;;;;;;18.48;9.35;;;;;;;12.67;100.00;101871.75;5036378;28;20069;-58
2022/10/08 07:58:59;;;;;;;16.38;8.70;;;;;;;12.70;100.00;101871.25;5052023;28;20056;-61
2022/10/08 08:01:28;;;;;;;20.95;8.80;;;;;;;12.70;100.00;101875.88;5034820;28;20050;-59
2022/10/08 08:03:58;;;;;;;18.35;7.43;;;;;;;12.71;100.00;101872.91;5036135;28;20491;-59
2022/10/08 08:06:26;;;;;;;15.20;6.20;;;;;;;12.71;100.00;101883.03;5018785;28;20048;-58
2022/10/08 08:08:55;;;;;;;15.00;6.25;;;;;;;12.74;100.00;101888.78;5027078;28;20502;-60
2022/10/08 08:11:24;;;;;;;13.20;5.95;;;;;;;12.76;100.00;101894.84;5022012;28;20493;-61
2022/10/08 08:13:52;;;;;;;12.57;5.38;;;;;;;12.78;100.00;101895.41;5036137;28;20044;-58
2022/10/08 08:16:25;;;;;;;13.75;4.88;;;;;;;12.81;100.00;101885.03;5033313;28;20520;-59
2022/10/08 08:18:55;;;;;;;14.02;4.88;;;;;;;12.82;100.00;101900.34;5036593;28;20045;-65
2022/10/08 08:21:28;;;;;;;15.90;5.30;;;;;;;12.85;100.00;101903.41;4999735;28;20567;-58
2022/10/08 08:23:57;;;;;;;13.05;5.40;;;;;;;12.87;100.00;101904.00;5035821;28;20575;-59
2022/10/08 08:26:28;;;;;;;11.23;3.60;;;;;;;12.89;100.00;101903.72;5036018;28;20488;-56
2022/10/08 08:29:02;;;;;;;13.57;3.80;;;;;;;12.88;98.85;101915.75;5014919;28;20551;-61
2022/10/08 08:31:34;;;;;;;14.10;4.00;;;;;;;12.90;99.34;101919.88;5029996;28;20053;-59
2022/10/08 08:34:08;;;;;;;16.33;3.85;;;;;;;12.91;96.57;101927.00;5034714;28;20492;-59
2022/10/08 08:36:39;;;;;;;15.40;3.42;;;;;;;12.90;96.34;101935.47;5034210;28;20488;-57
2022/10/08 08:39:09;;;;;;;13.00;3.30;;;;;;;12.92;96.96;101941.53;5036313;28;20056;-57
2022/10/08 08:41:46;;;;;;;11.43;3.30;;;;;;;12.95;96.58;101944.56;5034170;28;20508;-57
2022/10/08 08:44:17;;;;;;;13.68;3.63;;;;;;;12.98;95.92;101948.69;5034590;28;20505;-56
2022/10/08 08:46:53;;;;;;;14.35;3.42;;;;;;;12.97;94.39;101952.53;5036329;28;20103;-59
2022/10/08 08:49:33;;;;;;;13.40;3.33;;;;;;;12.97;94.06;101953.34;5035756;28;20500;-58
2022/10/08 08:52:03;;;;;;;10.32;2.80;;;;;;;12.97;93.79;101947.88;5014541;28;20117;-57
2022/10/08 08:54:31;;;;;;;11.40;3.22;;;;;;;13.02;93.92;101955.31;5027947;28;20046;-56
2022/10/08 08:57:31;;;;;;;10.80;2.70;;;;;;;13.06;94.05;101956.47;5036127;28;20041;-58
2022/10/08 09:00:21;;;;;;;14.75;3.17;;;;;;;13.10;91.89;101957.56;5036935;28;20103;-57
2022/10/08 09:02:57;;;;;;;8.50;2.55;;;;;;;13.11;89.95;101959.25;5035357;28;20053;-58
2022/10/08 09:05:27;;;;;;;11.43;3.28;;;;;;;13.12;90.04;101960.88;5021590;28;20038;-58
2022/10/08 09:08:16;;;;;;;9.38;3.15;;;;;;;13.17;90.34;101962.84;5025722;28;20049;-58
2022/10/08 09:10:55;;;;;;;9.00;2.78;;;;;;;13.17;87.49;101969.16;5021944;28;20140;-58
2022/10/08 09:13:33;;;;;;;11.88;2.70;;;;;;;13.23;86.69;101972.78;5034082;28;20030;-56
2022/10/08 09:16:01;;;;;;;11.48;3.15;;;;;;;13.26;87.13;101974.19;5033286;28;20038;-59
2022/10/08 09:18:29;;;;;;;19.00;4.47;;;;;;;13.33;89.42;101967.44;5021270;28;20411;-56
2022/10/08 09:20:57;;;;;;;13.63;3.30;;;;;;;13.37;86.71;101975.94;5034815;28;20146;-60
2022/10/08 09:23:25;;;;;;;14.82;3.60;;;;;;;13.34;84.92;101984.69;5036462;28;20036;-55
2022/10/08 09:26:02;;;;;;;12.07;2.88;;;;;;;13.33;83.10;101991.25;5014452;28;20452;-56
2022/10/08 09:28:50;;;;;;;10.05;2.72;;;;;;;13.37;83.48;101986.91;5032993;28;20041;-58
2022/10/08 09:31:32;;;;;;;11.90;2.75;;;;;;;13.38;83.59;101989.38;5029387;28;20033;-57
2022/10/08 09:34:09;;;;;;;10.23;2.92;;;;;;;13.33;81.01;101997.56;5022599;28;20060;-60
2022/10/08 09:36:46;;;;;;;8.40;2.78;;;;;;;13.30;81.88;102008.16;5034249;28;20072;-56
2022/10/08 09:39:20;;;;;;;15.52;3.35;;;;;;;13.28;82.87;102010.38;5034953;28;20045;-59
2022/10/08 09:42:16;;;;;;;9.68;2.88;;;;;;;13.24;82.66;102012.75;5041734;28;20061;-59
2022/10/08 09:44:45;;;;;;;9.75;2.60;;;;;;;13.25;81.42;102019.03;5033825;28;20551;-56
2022/10/08 09:47:15;;;;;;;14.38;2.88;;;;;;;13.28;81.99;102015.84;5034509;28;20500;-59
2022/10/08 09:49:43;;;;;;;9.07;2.70;;;;;;;13.33;82.03;102019.44;5034111;28;20100;-57
2022/10/08 09:52:24;;;;;;;7.90;2.70;;;;;;;13.41;82.21;102020.91;5022880;28;20093;-57
2022/10/08 09:55:08;;;;;;;11.63;2.60;;;;;;;13.47;80.61;102017.13;5040147;28;20048;-58
2022/10/08 09:57:47;;;;;;;8.13;2.88;;;;;;;13.53;78.31;102023.47;5041756;28;20511;-60
2022/10/08 10:00:35;;;;;;;9.90;2.33;;;;;;;13.59;78.77;102036.97;5034830;28;20049;-59
2022/10/08 10:03:05;;;;;;;12.75;2.78;;;;;;;13.64;76.29;102038.94;5030593;28;20109;-60
2022/10/08 10:05:35;;;;;;;9.38;2.60;;;;;;;13.63;75.60;102051.78;5052489;28;20106;-55
2022/10/08 10:08:03;;;;;;;10.27;2.70;;;;;;;13.64;75.75;102034.28;5042540;28;20034;-57
2022/10/08 10:10:43;;;;;;;13.50;2.70;;;;;;;13.66;75.73;102035.94;5034794;28;20049;-58
2022/10/08 10:13:20;;;;;;;8.93;2.58;;;;;;;13.76;76.78;102036.03;5034811;28;20037;-56
2022/10/08 10:16:10;;;;;;;8.93;2.40;;;;;;;13.76;76.65;102041.53;5038015;28;20036;-60
2022/10/08 10:18:47;;;;;;;9.38;2.72;;;;;;;13.78;75.81;102042.91;5018511;28;20041;-60
2022/10/08 10:21:23;;;;;;;10.07;2.60;;;;;;;13.84;76.17;102043.78;5032976;28;20124;-60
2022/10/08 10:24:01;;;;;;;11.02;2.88;;;;;;;13.90;75.66;102041.91;5023065;28;20049;-57
2022/10/08 10:26:34;;;;;;;9.23;2.75;;;;;;;13.87;73.36;102042.44;5033842;28;20049;-59
2022/10/08 10:29:20;;;;;;;9.57;2.70;;;;;;;13.86;73.68;102044.34;5030500;28;20074;-55
2022/10/08 10:31:56;;;;;;;11.10;2.25;;;;;;;13.85;71.99;102050.91;5032576;28;20056;-57
2022/10/08 10:34:26;;;;;;;8.60;2.42;;;;;;;13.83;68.30;102050.34;5033742;28;20120;-57
2022/10/08 10:37:19;;;;;;;4.00;1.90;;;;;;;13.80;68.25;102053.59;5032448;28;20053;-60
2022/10/08 10:40:13;;;;;;;8.52;2.40;;;;;;;13.83;69.36;102055.84;4334247;28;10000698;-58
2022/10/08 10:43:09;;;;;;;8.13;2.25;;;;;;;13.87;69.74;102054.22;5018842;28;20045;-60
2022/10/08 10:45:38;;;;;;;10.15;2.35;;;;;;;13.90;69.36;102056.41;5027686;28;20642;-60
2022/10/08 10:48:08;;;;;;;8.70;2.38;;;;;;;13.95;69.49;102051.00;5030586;28;20044;-61
2022/10/08 10:51:08;;;;;;;8.48;2.10;;;;;;;14.00;70.59;102059.28;5012586;28;20041;-56
2022/10/08 10:53:51;;;;;;;9.75;2.88;;;;;;;14.09;70.90;102061.53;5029423;28;20073;-57
2022/10/08 10:56:20;;;;;;;9.50;2.60;;;;;;;14.09;70.13;102056.88;5009732;28;20042;-60
2022/10/08 10:59:02;;;;;;;9.50;2.33;;;;;;;14.15;71.11;102063.22;5040438;28;20041;-58
2022/10/08 11:01:49;;;;;;;8.13;2.38;;;;;;;14.14;70.47;102061.56;5030261;28;20060;-57
2022/10/08 11:04:45;;;;;;;13.98;2.78;;;;;;;14.16;71.34;102062.13;5012830;28;20041;-59
2022/10/08 11:07:22;;;;;;;10.88;2.65;;;;;;;14.16;71.86;102065.69;5045232;28;20459;-60
2022/10/08 11:10:05;;;;;;;9.23;2.33;;;;;;;14.14;71.63;102062.41;5029735;28;20064;-60
2022/10/08 11:12:49;;;;;;;11.60;2.75;;;;;;;14.10;72.21;102080.47;5028621;28;20065;-61
2022/10/08 11:15:41;;;;;;;11.95;3.35;;;;;;;14.05;72.09;102064.78;5028760;28;20128;-59
2022/10/08 11:18:57;;;;;;;13.35;3.05;;;;;;;14.06;70.76;102068.34;5011767;28;20056;-59
2022/10/08 11:21:34;;;;;;;;;;;;;;;14.10;67.69;102079.63;5033128;28;20046;-60
2022/10/08 11:24:10;;;;;;;8.30;2.25;;;;;;;14.06;64.75;102073.84;5030757;28;19928;-59
2022/10/08 11:26:38;;;;;;;;;;;;;;;14.03;64.40;102075.19;5028824;28;20060;-57
2022/10/08 11:29:15;;;;;;;8.38;2.58;;;;;;;14.06;64.23;102082.06;5052351;28;19921;-60
2022/10/08 11:31:45;;;;;;;7.32;2.35;;;;;;;14.06;64.53;102069.19;5032722;28;20037;-59
2022/10/08 11:34:21;;;;;;;7.93;2.13;;;;;;;14.15;66.37;102068.72;5030851;28;20049;-59
2022/10/08 11:37:11;;;;;;;9.43;2.60;;;;;;;14.22;67.41;102066.59;5030063;28;20045;-60
2022/10/08 11:39:59;;;;;;;8.32;2.38;;;;;;;14.29;66.33;102069.94;5041144;28;20044;-62
2022/10/08 11:42:49;;;;;;;9.88;2.80;;;;;;;14.32;66.38;102066.66;5048087;28;20046;-60
2022/10/08 11:45:23;;;;;;;10.57;2.50;;;;;;;14.40;66.38;102068.91;5032299;28;20044;-57